createdAt,value
2023-04-11T00:03:19.602Z,94.40
2023-04-11T00:08:41.528Z,96.34
2023-04-11T00:14:03.426Z,96.82
2023-04-11T00:19:25.251Z,96.93
2023-04-11T00:24:47.073Z,96.63
2023-04-11T00:30:09.208Z,97.12
2023-04-11T00:35:31.063Z,97.37
2023-04-11T00:40:52.865Z,97.75
2023-04-11T00:46:16.045Z,96.94
2023-04-11T00:51:38.092Z,96.31
2023-04-11T00:57:01.072Z,97.31
2023-04-11T01:02:22.972Z,96.42
2023-04-11T01:07:48.676Z,96.20
2023-04-11T01:13:11.212Z,95.47
2023-04-11T01:18:33.260Z,96.44
2023-04-11T01:23:55.733Z,96.24
2023-04-11T01:29:17.617Z,96.25
2023-04-11T01:34:40.542Z,96.32
2023-04-11T01:40:02.694Z,96.93
2023-04-11T01:45:26.362Z,97.64
2023-04-11T01:50:49.451Z,98.33
2023-04-11T01:56:11.833Z,97.84
2023-04-11T02:01:34.447Z,98.95
2023-04-11T02:06:56.289Z,99.23
2023-04-11T02:12:18.116Z,98.32
2023-04-11T02:17:39.975Z,98.85
2023-04-11T02:23:01.869Z,98.62
2023-04-11T02:28:23.835Z,98.67
2023-04-11T02:33:45.690Z,99.69
2023-04-11T02:39:07.713Z,100.00
2023-04-11T02:44:29.537Z,100.00
2023-04-11T02:49:51.347Z,100.00
2023-04-11T02:55:13.189Z,100.00
2023-04-11T03:00:35.031Z,100.00
2023-04-11T03:05:56.851Z,100.00
2023-04-11T03:11:18.666Z,100.00
2023-04-11T03:16:40.514Z,100.00
2023-04-11T03:22:02.406Z,100.00
2023-04-11T03:27:24.220Z,100.00
2023-04-11T03:32:46.228Z,100.00
2023-04-11T03:38:08.054Z,100.00
2023-04-11T03:43:29.904Z,100.00
2023-04-11T03:48:51.747Z,100.00
2023-04-11T03:54:13.568Z,100.00
2023-04-11T03:59:35.414Z,100.00
2023-04-11T04:04:57.246Z,100.00
2023-04-11T04:10:19.094Z,100.00
2023-04-11T04:15:40.878Z,100.00
2023-04-11T04:21:02.726Z,94.22
2023-04-11T04:26:24.589Z,79.99
2023-04-11T04:31:46.465Z,69.22
2023-04-11T04:37:08.345Z,60.52
2023-04-11T04:42:30.283Z,54.37
2023-04-11T04:47:52.167Z,51.18
2023-04-11T04:53:14.012Z,48.94
2023-04-11T04:58:35.834Z,44.79
2023-04-11T05:03:57.894Z,42.68
2023-04-11T05:09:20.038Z,41.33
2023-04-11T05:14:42.281Z,45.60
2023-04-11T05:20:04.693Z,51.64
2023-04-11T05:25:26.543Z,51.88
2023-04-11T05:30:48.370Z,51.28
2023-04-11T05:36:10.613Z,51.63
2023-04-11T05:41:32.519Z,42.48
2023-04-11T05:46:54.318Z,38.29
2023-04-11T05:52:16.131Z,34.45
2023-04-11T05:57:38.003Z,34.01
2023-04-11T06:03:00.304Z,32.28
2023-04-11T06:08:22.395Z,30.53
2023-04-11T06:13:44.208Z,28.98
2023-04-11T06:19:06.061Z,27.80
2023-04-11T06:24:38.932Z,29.27
2023-04-11T06:30:00.812Z,31.02
2023-04-11T06:35:22.727Z,29.96
2023-04-11T06:40:44.523Z,26.41
2023-04-11T06:46:06.559Z,28.33
2023-04-11T06:51:28.495Z,28.67
2023-04-11T06:56:50.400Z,26.50
2023-04-11T07:02:12.272Z,26.79
2023-04-11T07:07:34.163Z,27.34
2023-04-11T07:12:56.020Z,29.63
2023-04-11T07:18:17.889Z,28.88
2023-04-11T07:23:40.253Z,28.74
2023-04-11T07:29:02.072Z,30.00
2023-04-11T07:34:24.101Z,32.20
2023-04-11T07:39:45.897Z,30.93
2023-04-11T07:45:08.382Z,30.89
2023-04-11T07:50:30.177Z,28.43
2023-04-11T07:55:51.997Z,29.08
2023-04-11T08:01:24.559Z,28.98
2023-04-11T08:06:46.356Z,32.57
2023-04-11T08:12:09.232Z,31.42
2023-04-11T08:17:31.150Z,32.64
2023-04-11T08:22:53.040Z,35.46
2023-04-11T08:28:14.877Z,35.29
2023-04-11T08:33:36.730Z,35.42
2023-04-11T08:38:58.563Z,35.06
2023-04-11T08:44:20.456Z,33.66
2023-04-11T08:49:42.276Z,34.71
2023-04-11T08:55:04.314Z,32.96
2023-04-11T09:00:27.262Z,32.91
2023-04-11T09:05:49.130Z,32.36
2023-04-11T09:11:10.929Z,33.15
2023-04-11T09:16:32.862Z,32.80
2023-04-11T09:21:57.011Z,33.32
2023-04-11T09:27:19.000Z,33.05
2023-04-11T09:32:40.856Z,32.46
2023-04-11T09:38:02.736Z,36.48
2023-04-11T09:43:24.769Z,35.12
2023-04-11T09:48:48.092Z,34.26
2023-04-11T09:54:10.679Z,34.15
2023-04-11T09:59:35.515Z,36.94
2023-04-11T10:04:58.354Z,38.52
2023-04-11T10:10:24.138Z,38.61
2023-04-11T10:16:05.557Z,41.17
2023-04-11T10:21:30.232Z,39.91
2023-04-11T10:26:54.674Z,41.18
2023-04-11T10:32:16.448Z,40.90
2023-04-11T10:37:38.279Z,44.44
2023-04-11T10:43:19.461Z,43.06
2023-04-11T10:49:01.394Z,43.61
2023-04-11T10:54:26.796Z,44.54
2023-04-11T10:59:51.684Z,42.95
2023-04-11T11:05:17.513Z,41.74
2023-04-11T11:10:45.224Z,41.12
2023-04-11T11:16:08.956Z,42.07
2023-04-11T11:21:31.725Z,40.80
2023-04-11T11:26:54.918Z,40.88
2023-04-11T11:32:24.737Z,41.32
2023-04-11T11:37:46.792Z,41.47
2023-04-11T11:43:08.672Z,41.04
2023-04-11T11:48:30.495Z,40.90
2023-04-11T11:54:05.907Z,40.72
2023-04-11T11:59:27.989Z,40.60
2023-04-11T12:04:50.261Z,40.10
2023-04-11T12:10:17.156Z,40.15
2023-04-11T12:15:40.212Z,40.12
2023-04-11T12:21:02.087Z,40.24
2023-04-11T12:26:23.945Z,39.61
2023-04-11T12:31:46.095Z,38.59
2023-04-11T12:37:08.108Z,38.22
2023-04-11T12:42:29.935Z,39.79
2023-04-11T12:47:52.294Z,41.34
2023-04-11T12:53:14.259Z,41.44
2023-04-11T12:58:36.140Z,41.53
2023-04-11T13:03:58.135Z,41.50
2023-04-11T13:09:20.126Z,41.84
2023-04-11T13:14:42.026Z,40.97
2023-04-11T13:20:04.665Z,42.52
2023-04-11T13:25:26.562Z,43.66
2023-04-11T13:30:48.468Z,43.80
2023-04-11T13:36:10.919Z,43.28
2023-04-11T13:41:32.871Z,42.71
2023-04-11T13:46:54.695Z,42.24
2023-04-11T13:52:16.547Z,41.93
2023-04-11T13:57:38.363Z,40.93
2023-04-11T14:03:00.460Z,41.80
2023-04-11T14:08:22.327Z,41.69
2023-04-11T14:13:44.116Z,41.67
2023-04-11T14:19:05.921Z,42.67
2023-04-11T14:24:28.648Z,42.64
2023-04-11T14:29:50.453Z,43.21
2023-04-11T14:35:12.304Z,41.53
2023-04-11T14:40:34.229Z,42.06
2023-04-11T14:45:56.438Z,41.71
2023-04-11T14:51:18.283Z,42.20
2023-04-11T14:56:40.145Z,42.56
2023-04-11T15:02:02.071Z,42.63
2023-04-11T15:07:23.914Z,42.21
2023-04-11T15:12:46.097Z,43.04
2023-04-11T15:18:37.077Z,43.14
2023-04-11T15:23:58.975Z,43.48
2023-04-11T15:29:20.864Z,42.67
2023-04-11T15:34:42.753Z,42.90
2023-04-11T15:40:05.007Z,43.24
2023-04-11T15:45:26.850Z,43.42
2023-04-11T15:50:48.809Z,43.54
2023-04-11T15:56:11.153Z,43.79
2023-04-11T16:01:33.186Z,44.10
2023-04-11T16:06:55.126Z,44.31
2023-04-11T16:12:18.677Z,45.08
2023-04-11T16:17:40.626Z,45.06
2023-04-11T16:23:02.566Z,45.50
2023-04-11T16:28:24.518Z,45.25
2023-04-11T16:33:46.336Z,46.36
2023-04-11T16:39:08.192Z,46.38
2023-04-11T16:44:30.018Z,46.86
2023-04-11T16:49:52.360Z,47.29
2023-04-11T16:55:14.294Z,47.63
2023-04-11T17:00:36.256Z,48.03
2023-04-11T17:05:58.231Z,47.95
2023-04-11T17:11:20.072Z,48.79
2023-04-11T17:16:42.351Z,49.68
2023-04-11T17:22:04.144Z,49.84
2023-04-11T17:27:25.937Z,50.34
2023-04-11T17:32:48.436Z,50.76
2023-04-11T17:38:10.677Z,51.00
2023-04-11T17:43:32.921Z,51.70
2023-04-11T17:48:54.797Z,52.68
2023-04-11T18:00:36.748Z,55.33
2023-04-11T18:06:03.554Z,56.13
2023-04-11T18:11:25.488Z,57.23
2023-04-11T18:16:47.352Z,58.37
2023-04-11T18:22:09.298Z,59.84
2023-04-11T18:27:32.294Z,60.42
2023-04-11T18:32:54.276Z,60.18
2023-04-11T18:38:16.202Z,61.45
2023-04-11T18:43:38.922Z,61.45
2023-04-11T18:49:01.215Z,62.94
2023-04-11T18:54:23.037Z,62.73
2023-04-11T18:59:46.379Z,63.47
2023-04-11T19:05:11.202Z,63.94
2023-04-11T19:10:33.286Z,64.35
2023-04-11T19:15:55.378Z,65.21
2023-04-11T19:21:17.236Z,65.46
2023-04-11T19:26:39.076Z,65.23
2023-04-11T19:32:01.080Z,64.77
2023-04-11T19:37:22.953Z,65.48
2023-04-11T19:42:45.228Z,66.08
2023-04-11T19:48:07.102Z,65.88
2023-04-11T19:53:29.041Z,65.61
2023-04-11T19:58:50.955Z,65.56
2023-04-11T20:04:12.970Z,66.09
2023-04-11T20:09:34.887Z,66.55
2023-04-11T20:14:56.781Z,67.53
2023-04-11T20:20:19.928Z,67.72
2023-04-11T20:25:42.363Z,68.44
2023-04-11T20:31:04.388Z,68.76
2023-04-11T20:36:26.368Z,68.86
2023-04-11T20:41:48.514Z,69.40
2023-04-11T20:47:10.345Z,71.22
2023-04-11T20:52:32.314Z,70.33
2023-04-11T20:57:54.200Z,70.43
2023-04-11T21:03:16.172Z,69.82
2023-04-11T21:08:38.122Z,69.37
2023-04-11T21:13:59.957Z,69.59
2023-04-11T21:19:21.805Z,73.05
2023-04-11T21:24:43.639Z,72.10
2023-04-11T21:30:06.037Z,71.89
2023-04-11T21:35:28.117Z,71.86
2023-04-11T21:40:49.921Z,71.04
2023-04-11T21:46:11.804Z,70.47
2023-04-11T21:51:33.620Z,69.76
2023-04-11T21:56:55.399Z,69.81
2023-04-11T22:02:17.282Z,70.63
2023-04-11T22:07:39.353Z,70.60
2023-04-11T22:13:01.262Z,70.22
2023-04-11T22:18:23.072Z,70.08
2023-04-11T22:23:51.950Z,71.37
2023-04-11T22:29:13.845Z,72.25
2023-04-11T22:34:35.781Z,71.88
2023-04-11T22:39:57.649Z,72.30
2023-04-11T22:45:20.716Z,72.53
2023-04-11T22:50:43.410Z,72.45
2023-04-11T22:56:05.557Z,72.48
2023-04-11T23:01:27.481Z,72.22
2023-04-11T23:06:50.549Z,74.20
2023-04-11T23:12:12.504Z,74.66
2023-04-11T23:17:34.321Z,76.45
2023-04-11T23:22:56.118Z,78.03
2023-04-11T23:28:17.921Z,79.00
2023-04-11T23:33:39.734Z,81.23
2023-04-11T23:39:01.548Z,82.26
2023-04-11T23:44:23.475Z,82.59
2023-04-11T23:49:45.313Z,84.81
2023-04-11T23:55:07.893Z,86.19
